sensor_id;sensor_type;location;lat;lon;timestamp;P1;durP1;ratioP1;P2;durP2;ratioP2
1400;SDS011;46518;48.842;8.926;2024-01-15T00:00:12;22.02;;;10.80;;
1400;SDS011;46518;48.842;8.926;2024-01-15T00:02:41;18.80;;;11.07;;
1400;SDS011;46518;48.842;8.926;2024-01-15T00:05:09;26.30;;;11.57;;
1400;SDS011;46518;48.842;8.926;2024-01-15T00:07:42;22.85;;;11.82;;
1400;SDS011;46518;48.842;8.926;2024-01-15T00:10:12;22.98;;;10.38;;
1400;SDS011;46518;48.842;8.926;2024-01-15T00:12:41;22.33;;;12.45;;
1400;SDS011;46518;48.842;8.926;2024-01-15T00:15:09;24.80;;;10.63;;
1400;SDS011;46518;48.842;8.926;2024-01-15T00:17:40;26.58;;;10.85;;
1400;SDS011;46518;48.842;8.926;2024-01-15T00:20:08;21.13;;;10.63;;
1400;SDS011;46518;48.842;8.926;2024-01-15T00:22:37;20.10;;;10.57;;
1400;SDS011;46518;48.842;8.926;2024-01-15T00:25:07;19.20;;;10.85;;
1400;SDS011;46518;48.842;8.926;2024-01-15T00:27:37;25.52;;;11.05;;
1400;SDS011;46518;48.842;8.926;2024-01-15T00:30:06;18.48;;;8.85;;
1400;SDS011;46518;48.842;8.926;2024-01-15T00:32:35;19.75;;;11.35;;
1400;SDS011;46518;48.842;8.926;2024-01-15T00:35:03;26.52;;;12.27;;
1400;SDS011;46518;48.842;8.926;2024-01-15T00:37:32;19.95;;;10.55;;
1400;SDS011;46518;48.842;8.926;2024-01-15T00:40:00;23.98;;;10.35;;
1400;SDS011;46518;48.842;8.926;2024-01-15T00:42:38;24.98;;;10.35;;
1400;SDS011;46518;48.842;8.926;2024-01-15T00:45:09;19.15;;;11.20;;
1400;SDS011;46518;48.842;8.926;2024-01-15T00:47:38;22.25;;;12.55;;
1400;SDS011;46518;48.842;8.926;2024-01-15T00:50:06;16.42;;;9.88;;
1400;SDS011;46518;48.842;8.926;2024-01-15T00:52:35;24.63;;;10.90;;
1400;SDS011;46518;48.842;8.926;2024-01-15T00:55:03;20.90;;;10.27;;
1400;SDS011;46518;48.842;8.926;2024-01-15T00:57:34;19.98;;;11.63;;
1400;SDS011;46518;48.842;8.926;2024-01-15T01:00:05;24.45;;;10.20;;
1400;SDS011;46518;48.842;8.926;2024-01-15T01:02:35;21.20;;;10.77;;
1400;SDS011;46518;48.842;8.926;2024-01-15T01:05:05;24.33;;;13.38;;
1400;SDS011;46518;48.842;8.926;2024-01-15T01:07:36;21.92;;;11.38;;
1400;SDS011;46518;48.842;8.926;2024-01-15T01:10:04;26.20;;;11.02;;
1400;SDS011;46518;48.842;8.926;2024-01-15T01:12:33;17.90;;;9.60;;
1400;SDS011;46518;48.842;8.926;2024-01-15T01:15:06;18.45;;;10.80;;
1400;SDS011;46518;48.842;8.926;2024-01-15T01:17:34;19.95;;;10.20;;
1400;SDS011;46518;48.842;8.926;2024-01-15T01:20:03;18.25;;;10.68;;
1400;SDS011;46518;48.842;8.926;2024-01-15T01:22:35;16.58;;;10.60;;
1400;SDS011;46518;48.842;8.926;2024-01-15T01:25:08;20.05;;;11.13;;
1400;SDS011;46518;48.842;8.926;2024-01-15T01:27:36;18.48;;;10.90;;
1400;SDS011;46518;48.842;8.926;2024-01-15T01:30:10;24.48;;;10.55;;
1400;SDS011;46518;48.842;8.926;2024-01-15T01:32:40;17.98;;;9.90;;
1400;SDS011;46518;48.842;8.926;2024-01-15T01:35:08;21.33;;;10.30;;
1400;SDS011;46518;48.842;8.926;2024-01-15T01:37:36;24.50;;;10.23;;
1400;SDS011;46518;48.842;8.926;2024-01-15T01:40:04;21.65;;;11.55;;
1400;SDS011;46518;48.842;8.926;2024-01-15T01:42:33;19.00;;;11.32;;
1400;SDS011;46518;48.842;8.926;2024-01-15T01:45:01;17.40;;;9.63;;
1400;SDS011;46518;48.842;8.926;2024-01-15T01:47:32;16.25;;;10.45;;
1400;SDS011;46518;48.842;8.926;2024-01-15T01:50:03;23.75;;;10.05;;
1400;SDS011;46518;48.842;8.926;2024-01-15T01:52:32;18.35;;;9.50;;
1400;SDS011;46518;48.842;8.926;2024-01-15T01:55:02;20.10;;;9.43;;
1400;SDS011;46518;48.842;8.926;2024-01-15T01:57:32;17.80;;;9.05;;
1400;SDS011;46518;48.842;8.926;2024-01-15T02:00:02;19.75;;;10.73;;
1400;SDS011;46518;48.842;8.926;2024-01-15T02:02:38;18.45;;;8.88;;
1400;SDS011;46518;48.842;8.926;2024-01-15T02:05:07;13.52;;;7.80;;
1400;SDS011;46518;48.842;8.926;2024-01-15T02:07:36;16.85;;;8.88;;
1400;SDS011;46518;48.842;8.926;2024-01-15T02:10:04;15.50;;;8.77;;
1400;SDS011;46518;48.842;8.926;2024-01-15T02:12:33;15.02;;;9.30;;
1400;SDS011;46518;48.842;8.926;2024-01-15T02:15:01;17.95;;;9.07;;
1400;SDS011;46518;48.842;8.926;2024-01-15T02:17:31;19.98;;;9.05;;
1400;SDS011;46518;48.842;8.926;2024-01-15T02:20:01;17.50;;;8.50;;
1400;SDS011;46518;48.842;8.926;2024-01-15T02:22:29;15.65;;;8.25;;
1400;SDS011;46518;48.842;8.926;2024-01-15T02:24:59;18.40;;;9.43;;
1400;SDS011;46518;48.842;8.926;2024-01-15T02:27:27;19.95;;;10.77;;
1400;SDS011;46518;48.842;8.926;2024-01-15T02:29:55;18.27;;;9.43;;
1400;SDS011;46518;48.842;8.926;2024-01-15T02:32:24;22.98;;;11.00;;
1400;SDS011;46518;48.842;8.926;2024-01-15T02:34:52;23.80;;;9.90;;
1400;SDS011;46518;48.842;8.926;2024-01-15T02:37:21;20.83;;;9.05;;
1400;SDS011;46518;48.842;8.926;2024-01-15T02:39:49;19.58;;;9.00;;
1400;SDS011;46518;48.842;8.926;2024-01-15T02:42:18;17.38;;;9.10;;
1400;SDS011;46518;48.842;8.926;2024-01-15T02:44:49;20.25;;;11.10;;
1400;SDS011;46518;48.842;8.926;2024-01-15T02:47:17;21.83;;;9.90;;
1400;SDS011;46518;48.842;8.926;2024-01-15T02:49:45;17.70;;;9.00;;
1400;SDS011;46518;48.842;8.926;2024-01-15T02:52:13;16.50;;;8.40;;
1400;SDS011;46518;48.842;8.926;2024-01-15T02:54:42;18.08;;;10.20;;
1400;SDS011;46518;48.842;8.926;2024-01-15T02:57:10;13.57;;;7.95;;
1400;SDS011;46518;48.842;8.926;2024-01-15T02:59:40;20.67;;;8.77;;
1400;SDS011;46518;48.842;8.926;2024-01-15T03:02:09;18.55;;;10.52;;
1400;SDS011;46518;48.842;8.926;2024-01-15T03:04:37;21.20;;;10.90;;
1400;SDS011;46518;48.842;8.926;2024-01-15T03:07:05;17.02;;;9.35;;
1400;SDS011;46518;48.842;8.926;2024-01-15T03:09:33;14.32;;;8.57;;
1400;SDS011;46518;48.842;8.926;2024-01-15T03:12:02;19.30;;;9.13;;
1400;SDS011;46518;48.842;8.926;2024-01-15T03:14:32;18.33;;;9.25;;
1400;SDS011;46518;48.842;8.926;2024-01-15T03:17:02;17.02;;;7.93;;
1400;SDS011;46518;48.842;8.926;2024-01-15T03:19:30;23.80;;;11.05;;
1400;SDS011;46518;48.842;8.926;2024-01-15T03:21:58;19.55;;;9.23;;
1400;SDS011;46518;48.842;8.926;2024-01-15T03:24:27;15.20;;;9.70;;
1400;SDS011;46518;48.842;8.926;2024-01-15T03:26:55;13.25;;;8.10;;
1400;SDS011;46518;48.842;8.926;2024-01-15T03:29:23;16.40;;;7.97;;
1400;SDS011;46518;48.842;8.926;2024-01-15T03:31:52;15.55;;;7.93;;
1400;SDS011;46518;48.842;8.926;2024-01-15T03:34:21;11.57;;;7.32;;
1400;SDS011;46518;48.842;8.926;2024-01-15T03:36:50;13.35;;;6.45;;
1400;SDS011;46518;48.842;8.926;2024-01-15T03:39:18;15.45;;;8.90;;
1400;SDS011;46518;48.842;8.926;2024-01-15T03:41:46;8.77;;;6.38;;
1400;SDS011;46518;48.842;8.926;2024-01-15T03:44:14;11.10;;;7.53;;
1400;SDS011;46518;48.842;8.926;2024-01-15T03:46:42;11.52;;;7.78;;
1400;SDS011;46518;48.842;8.926;2024-01-15T03:49:11;13.90;;;8.00;;
1400;SDS011;46518;48.842;8.926;2024-01-15T03:51:40;14.90;;;7.80;;
1400;SDS011;46518;48.842;8.926;2024-01-15T03:54:08;15.77;;;8.00;;
1400;SDS011;46518;48.842;8.926;2024-01-15T03:56:37;14.88;;;7.18;;
1400;SDS011;46518;48.842;8.926;2024-01-15T03:59:05;12.25;;;7.65;;
1400;SDS011;46518;48.842;8.926;2024-01-15T04:01:33;13.07;;;7.95;;
1400;SDS011;46518;48.842;8.926;2024-01-15T04:04:01;8.15;;;5.88;;
1400;SDS011;46518;48.842;8.926;2024-01-15T04:06:29;12.63;;;7.93;;
1400;SDS011;46518;48.842;8.926;2024-01-15T04:08:59;12.55;;;6.57;;
1400;SDS011;46518;48.842;8.926;2024-01-15T04:11:28;10.02;;;6.78;;
1400;SDS011;46518;48.842;8.926;2024-01-15T04:13:56;12.68;;;7.60;;
1400;SDS011;46518;48.842;8.926;2024-01-15T04:16:24;10.20;;;6.70;;
1400;SDS011;46518;48.842;8.926;2024-01-15T04:18:52;10.57;;;6.30;;
1400;SDS011;46518;48.842;8.926;2024-01-15T04:21:20;14.55;;;8.45;;
1400;SDS011;46518;48.842;8.926;2024-01-15T04:23:49;10.07;;;7.25;;
1400;SDS011;46518;48.842;8.926;2024-01-15T04:26:18;11.80;;;6.78;;
1400;SDS011;46518;48.842;8.926;2024-01-15T04:28:46;11.68;;;7.13;;
1400;SDS011;46518;48.842;8.926;2024-01-15T04:31:20;11.98;;;7.30;;
1400;SDS011;46518;48.842;8.926;2024-01-15T04:33:50;12.00;;;7.05;;
1400;SDS011;46518;48.842;8.926;2024-01-15T04:36:19;11.90;;;6.10;;
1400;SDS011;46518;48.842;8.926;2024-01-15T04:38:47;11.30;;;6.68;;
1400;SDS011;46518;48.842;8.926;2024-01-15T04:41:16;9.77;;;5.95;;
1400;SDS011;46518;48.842;8.926;2024-01-15T04:43:45;8.65;;;6.22;;
1400;SDS011;46518;48.842;8.926;2024-01-15T04:46:14;12.07;;;5.60;;
1400;SDS011;46518;48.842;8.926;2024-01-15T04:48:42;9.15;;;6.15;;
1400;SDS011;46518;48.842;8.926;2024-01-15T04:51:10;10.25;;;6.00;;
1400;SDS011;46518;48.842;8.926;2024-01-15T04:53:38;11.52;;;6.85;;
1400;SDS011;46518;48.842;8.926;2024-01-15T04:56:06;11.65;;;6.60;;
1400;SDS011;46518;48.842;8.926;2024-01-15T04:58:35;8.93;;;6.00;;
1400;SDS011;46518;48.842;8.926;2024-01-15T05:01:04;8.88;;;5.78;;
1400;SDS011;46518;48.842;8.926;2024-01-15T05:03:33;9.25;;;4.97;;
1400;SDS011;46518;48.842;8.926;2024-01-15T05:06:01;8.90;;;6.20;;
1400;SDS011;46518;48.842;8.926;2024-01-15T05:08:29;8.05;;;5.15;;
1400;SDS011;46518;48.842;8.926;2024-01-15T05:10:58;10.35;;;6.82;;
1400;SDS011;46518;48.842;8.926;2024-01-15T05:13:26;10.13;;;6.10;;
1400;SDS011;46518;48.842;8.926;2024-01-15T05:15:54;9.57;;;5.47;;
1400;SDS011;46518;48.842;8.926;2024-01-15T05:18:24;7.72;;;5.55;;
1400;SDS011;46518;48.842;8.926;2024-01-15T05:20:52;8.90;;;6.55;;
1400;SDS011;46518;48.842;8.926;2024-01-15T05:23:20;6.32;;;4.85;;
1400;SDS011;46518;48.842;8.926;2024-01-15T05:25:49;8.68;;;5.82;;
1400;SDS011;46518;48.842;8.926;2024-01-15T05:28:17;7.63;;;5.30;;
1400;SDS011;46518;48.842;8.926;2024-01-15T05:30:45;9.27;;;6.43;;
1400;SDS011;46518;48.842;8.926;2024-01-15T05:33:13;8.65;;;6.07;;
1400;SDS011;46518;48.842;8.926;2024-01-15T05:35:43;8.20;;;5.85;;
1400;SDS011;46518;48.842;8.926;2024-01-15T05:38:11;11.00;;;5.68;;
1400;SDS011;46518;48.842;8.926;2024-01-15T05:40:39;9.70;;;5.20;;
1400;SDS011;46518;48.842;8.926;2024-01-15T05:43:08;8.88;;;5.55;;
1400;SDS011;46518;48.842;8.926;2024-01-15T05:45:37;7.05;;;5.10;;
1400;SDS011;46518;48.842;8.926;2024-01-15T05:48:06;11.70;;;6.80;;
1400;SDS011;46518;48.842;8.926;2024-01-15T05:50:34;8.68;;;5.90;;
1400;SDS011;46518;48.842;8.926;2024-01-15T05:53:04;9.68;;;5.18;;
1400;SDS011;46518;48.842;8.926;2024-01-15T05:55:32;7.88;;;5.47;;
1400;SDS011;46518;48.842;8.926;2024-01-15T05:58:00;9.40;;;5.28;;
1400;SDS011;46518;48.842;8.926;2024-01-15T06:00:28;9.55;;;5.55;;
1400;SDS011;46518;48.842;8.926;2024-01-15T06:02:56;8.82;;;5.30;;
1400;SDS011;46518;48.842;8.926;2024-01-15T06:05:25;6.10;;;4.35;;
1400;SDS011;46518;48.842;8.926;2024-01-15T06:07:53;14.90;;;6.82;;
1400;SDS011;46518;48.842;8.926;2024-01-15T06:10:22;8.65;;;5.30;;
1400;SDS011;46518;48.842;8.926;2024-01-15T06:12:50;8.15;;;5.18;;
1400;SDS011;46518;48.842;8.926;2024-01-15T06:15:18;7.70;;;5.10;;
1400;SDS011;46518;48.842;8.926;2024-01-15T06:17:47;7.55;;;5.70;;
1400;SDS011;46518;48.842;8.926;2024-01-15T06:20:15;9.07;;;5.65;;
1400;SDS011;46518;48.842;8.926;2024-01-15T06:22:43;7.35;;;6.10;;
1400;SDS011;46518;48.842;8.926;2024-01-15T06:25:11;10.60;;;6.25;;
1400;SDS011;46518;48.842;8.926;2024-01-15T06:27:41;7.72;;;5.65;;
1400;SDS011;46518;48.842;8.926;2024-01-15T06:30:09;10.07;;;5.88;;
1400;SDS011;46518;48.842;8.926;2024-01-15T06:32:39;7.93;;;5.65;;
1400;SDS011;46518;48.842;8.926;2024-01-15T06:35:07;8.65;;;4.53;;
1400;SDS011;46518;48.842;8.926;2024-01-15T06:37:37;6.47;;;5.30;;
1400;SDS011;46518;48.842;8.926;2024-01-15T06:40:05;9.35;;;5.75;;
1400;SDS011;46518;48.842;8.926;2024-01-15T06:42:35;6.35;;;4.60;;
1400;SDS011;46518;48.842;8.926;2024-01-15T06:45:05;7.78;;;5.18;;
1400;SDS011;46518;48.842;8.926;2024-01-15T06:47:33;6.45;;;4.75;;
1400;SDS011;46518;48.842;8.926;2024-01-15T06:50:02;5.93;;;4.32;;
1400;SDS011;46518;48.842;8.926;2024-01-15T06:52:31;5.60;;;4.30;;
1400;SDS011;46518;48.842;8.926;2024-01-15T06:54:59;6.97;;;4.40;;
1400;SDS011;46518;48.842;8.926;2024-01-15T06:57:28;6.05;;;4.75;;
1400;SDS011;46518;48.842;8.926;2024-01-15T06:59:56;10.27;;;7.22;;
1400;SDS011;46518;48.842;8.926;2024-01-15T07:02:25;6.78;;;5.32;;
1400;SDS011;46518;48.842;8.926;2024-01-15T07:04:53;8.00;;;5.43;;
1400;SDS011;46518;48.842;8.926;2024-01-15T07:07:22;12.95;;;6.70;;
1400;SDS011;46518;48.842;8.926;2024-01-15T07:09:50;11.80;;;6.63;;
1400;SDS011;46518;48.842;8.926;2024-01-15T07:12:19;11.32;;;7.70;;
1400;SDS011;46518;48.842;8.926;2024-01-15T07:14:47;11.70;;;6.22;;
1400;SDS011;46518;48.842;8.926;2024-01-15T07:17:15;10.60;;;6.57;;
1400;SDS011;46518;48.842;8.926;2024-01-15T07:19:45;11.52;;;7.28;;
1400;SDS011;46518;48.842;8.926;2024-01-15T07:22:13;12.20;;;7.53;;
1400;SDS011;46518;48.842;8.926;2024-01-15T07:24:43;9.10;;;7.03;;
1400;SDS011;46518;48.842;8.926;2024-01-15T07:27:12;10.82;;;7.07;;
1400;SDS011;46518;48.842;8.926;2024-01-15T07:29:40;11.23;;;7.10;;
1400;SDS011;46518;48.842;8.926;2024-01-15T07:32:09;10.48;;;7.53;;
1400;SDS011;46518;48.842;8.926;2024-01-15T07:34:37;12.05;;;6.32;;
1400;SDS011;46518;48.842;8.926;2024-01-15T07:37:07;9.57;;;7.22;;
1400;SDS011;46518;48.842;8.926;2024-01-15T07:39:35;14.85;;;8.52;;
1400;SDS011;46518;48.842;8.926;2024-01-15T07:42:03;13.02;;;7.00;;
1400;SDS011;46518;48.842;8.926;2024-01-15T07:44:32;13.00;;;7.80;;
1400;SDS011;46518;48.842;8.926;2024-01-15T07:47:00;12.18;;;7.57;;
1400;SDS011;46518;48.842;8.926;2024-01-15T07:49:28;10.25;;;7.28;;
1400;SDS011;46518;48.842;8.926;2024-01-15T07:51:56;12.88;;;7.22;;
1400;SDS011;46518;48.842;8.926;2024-01-15T07:54:26;8.45;;;6.20;;
1400;SDS011;46518;48.842;8.926;2024-01-15T07:56:55;14.77;;;7.38;;
1400;SDS011;46518;48.842;8.926;2024-01-15T07:59:24;9.75;;;6.55;;
1400;SDS011;46518;48.842;8.926;2024-01-15T08:01:52;10.63;;;7.13;;
1400;SDS011;46518;48.842;8.926;2024-01-15T08:04:21;12.13;;;5.82;;
1400;SDS011;46518;48.842;8.926;2024-01-15T08:06:52;12.18;;;6.28;;
1400;SDS011;46518;48.842;8.926;2024-01-15T08:09:20;6.55;;;4.88;;
1400;SDS011;46518;48.842;8.926;2024-01-15T08:11:50;8.75;;;5.95;;
1400;SDS011;46518;48.842;8.926;2024-01-15T08:14:18;8.52;;;5.75;;
1400;SDS011;46518;48.842;8.926;2024-01-15T08:16:46;7.13;;;4.80;;
1400;SDS011;46518;48.842;8.926;2024-01-15T08:19:15;11.13;;;6.18;;
1400;SDS011;46518;48.842;8.926;2024-01-15T08:21:43;9.85;;;6.43;;
1400;SDS011;46518;48.842;8.926;2024-01-15T08:24:12;7.57;;;5.00;;
1400;SDS011;46518;48.842;8.926;2024-01-15T08:26:40;8.23;;;5.18;;
1400;SDS011;46518;48.842;8.926;2024-01-15T08:29:10;10.27;;;5.25;;
1400;SDS011;46518;48.842;8.926;2024-01-15T08:31:38;6.90;;;5.50;;
1400;SDS011;46518;48.842;8.926;2024-01-15T08:34:07;7.15;;;4.85;;
1400;SDS011;46518;48.842;8.926;2024-01-15T08:36:35;9.40;;;5.88;;
1400;SDS011;46518;48.842;8.926;2024-01-15T08:39:03;7.53;;;4.82;;
1400;SDS011;46518;48.842;8.926;2024-01-15T08:41:32;8.45;;;4.65;;
1400;SDS011;46518;48.842;8.926;2024-01-15T08:44:01;6.82;;;4.78;;
1400;SDS011;46518;48.842;8.926;2024-01-15T08:46:31;7.97;;;4.75;;
1400;SDS011;46518;48.842;8.926;2024-01-15T08:48:59;7.43;;;4.82;;
1400;SDS011;46518;48.842;8.926;2024-01-15T08:51:27;6.88;;;4.50;;
1400;SDS011;46518;48.842;8.926;2024-01-15T08:53:55;7.78;;;5.40;;
1400;SDS011;46518;48.842;8.926;2024-01-15T08:56:24;13.23;;;5.72;;
1400;SDS011;46518;48.842;8.926;2024-01-15T08:58:54;5.57;;;4.30;;
1400;SDS011;46518;48.842;8.926;2024-01-15T09:01:22;6.80;;;5.15;;
1400;SDS011;46518;48.842;8.926;2024-01-15T09:03:52;8.32;;;3.72;;
1400;SDS011;46518;48.842;8.926;2024-01-15T09:06:21;6.45;;;4.25;;
1400;SDS011;46518;48.842;8.926;2024-01-15T09:08:49;8.68;;;5.20;;
1400;SDS011;46518;48.842;8.926;2024-01-15T09:11:17;5.60;;;4.00;;
1400;SDS011;46518;48.842;8.926;2024-01-15T09:13:46;9.57;;;5.10;;
1400;SDS011;46518;48.842;8.926;2024-01-15T09:16:14;7.53;;;4.65;;
1400;SDS011;46518;48.842;8.926;2024-01-15T09:18:42;5.60;;;4.38;;
1400;SDS011;46518;48.842;8.926;2024-01-15T09:21:12;5.10;;;3.63;;
1400;SDS011;46518;48.842;8.926;2024-01-15T09:23:40;7.47;;;4.97;;
1400;SDS011;46518;48.842;8.926;2024-01-15T09:26:09;5.22;;;3.90;;
1400;SDS011;46518;48.842;8.926;2024-01-15T09:28:37;7.07;;;4.20;;
1400;SDS011;46518;48.842;8.926;2024-01-15T09:31:05;8.85;;;3.88;;
1400;SDS011;46518;48.842;8.926;2024-01-15T09:33:33;7.25;;;5.10;;
1400;SDS011;46518;48.842;8.926;2024-01-15T09:36:02;6.38;;;4.55;;
1400;SDS011;46518;48.842;8.926;2024-01-15T09:38:32;4.68;;;4.10;;
1400;SDS011;46518;48.842;8.926;2024-01-15T09:41:01;5.88;;;3.80;;
1400;SDS011;46518;48.842;8.926;2024-01-15T09:43:29;6.47;;;4.60;;
1400;SDS011;46518;48.842;8.926;2024-01-15T09:45:58;6.95;;;4.35;;
1400;SDS011;46518;48.842;8.926;2024-01-15T09:48:27;6.28;;;4.18;;
1400;SDS011;46518;48.842;8.926;2024-01-15T09:50:55;6.72;;;4.45;;
1400;SDS011;46518;48.842;8.926;2024-01-15T09:53:25;4.85;;;4.28;;
1400;SDS011;46518;48.842;8.926;2024-01-15T09:55:55;11.77;;;5.20;;
1400;SDS011;46518;48.842;8.926;2024-01-15T09:58:24;5.82;;;4.40;;
1400;SDS011;46518;48.842;8.926;2024-01-15T10:00:52;6.25;;;3.67;;
1400;SDS011;46518;48.842;8.926;2024-01-15T10:03:22;7.63;;;4.78;;
1400;SDS011;46518;48.842;8.926;2024-01-15T10:05:50;8.07;;;4.00;;
1400;SDS011;46518;48.842;8.926;2024-01-15T10:08:19;10.88;;;4.20;;
1400;SDS011;46518;48.842;8.926;2024-01-15T10:10:48;7.93;;;4.63;;
1400;SDS011;46518;48.842;8.926;2024-01-15T10:13:17;5.15;;;4.35;;
1400;SDS011;46518;48.842;8.926;2024-01-15T10:15:47;6.20;;;4.60;;
1400;SDS011;46518;48.842;8.926;2024-01-15T10:18:15;7.45;;;4.18;;
1400;SDS011;46518;48.842;8.926;2024-01-15T10:20:44;7.22;;;5.35;;
1400;SDS011;46518;48.842;8.926;2024-01-15T10:23:13;9.65;;;4.90;;
1400;SDS011;46518;48.842;8.926;2024-01-15T10:25:42;8.88;;;5.28;;
1400;SDS011;46518;48.842;8.926;2024-01-15T10:28:10;10.60;;;4.88;;
1400;SDS011;46518;48.842;8.926;2024-01-15T10:30:40;7.70;;;4.97;;
1400;SDS011;46518;48.842;8.926;2024-01-15T10:33:08;7.72;;;5.57;;
1400;SDS011;46518;48.842;8.926;2024-01-15T10:35:38;8.68;;;4.65;;
1400;SDS011;46518;48.842;8.926;2024-01-15T10:38:08;10.27;;;5.00;;
1400;SDS011;46518;48.842;8.926;2024-01-15T10:40:36;8.18;;;4.40;;
1400;SDS011;46518;48.842;8.926;2024-01-15T10:43:05;7.45;;;4.25;;
1400;SDS011;46518;48.842;8.926;2024-01-15T10:45:33;8.05;;;4.68;;
1400;SDS011;46518;48.842;8.926;2024-01-15T10:48:03;7.50;;;5.10;;
1400;SDS011;46518;48.842;8.926;2024-01-15T10:50:32;5.93;;;4.47;;
1400;SDS011;46518;48.842;8.926;2024-01-15T10:53:00;6.78;;;4.65;;
1400;SDS011;46518;48.842;8.926;2024-01-15T10:55:29;6.60;;;4.55;;
1400;SDS011;46518;48.842;8.926;2024-01-15T10:57:59;5.13;;;4.63;;
1400;SDS011;46518;48.842;8.926;2024-01-15T11:00:28;5.95;;;4.47;;
1400;SDS011;46518;48.842;8.926;2024-01-15T11:02:56;8.55;;;5.18;;
1400;SDS011;46518;48.842;8.926;2024-01-15T11:05:26;6.20;;;4.72;;
1400;SDS011;46518;48.842;8.926;2024-01-15T11:07:55;12.23;;;5.70;;
1400;SDS011;46518;48.842;8.926;2024-01-15T11:10:39;7.70;;;5.88;;
1400;SDS011;46518;48.842;8.926;2024-01-15T11:13:14;7.40;;;5.03;;
1400;SDS011;46518;48.842;8.926;2024-01-15T11:15:55;12.20;;;6.45;;
1400;SDS011;46518;48.842;8.926;2024-01-15T11:18:28;6.07;;;4.88;;
1400;SDS011;46518;48.842;8.926;2024-01-15T11:23:51;6.47;;;5.18;;
1400;SDS011;46518;48.842;8.926;2024-01-15T11:26:31;7.40;;;5.03;;
1400;SDS011;46518;48.842;8.926;2024-01-15T11:29:02;8.50;;;5.53;;
1400;SDS011;46518;48.842;8.926;2024-01-15T11:40:37;9.25;;;6.10;;
1400;SDS011;46518;48.842;8.926;2024-01-15T11:43:09;6.45;;;5.72;;
1400;SDS011;46518;48.842;8.926;2024-01-15T11:45:40;8.88;;;5.97;;
1400;SDS011;46518;48.842;8.926;2024-01-15T11:48:09;8.80;;;5.43;;
1400;SDS011;46518;48.842;8.926;2024-01-15T11:50:39;8.20;;;5.60;;
1400;SDS011;46518;48.842;8.926;2024-01-15T11:53:15;13.15;;;6.70;;
1400;SDS011;46518;48.842;8.926;2024-01-15T11:55:45;10.57;;;5.70;;
1400;SDS011;46518;48.842;8.926;2024-01-15T11:58:15;8.93;;;6.30;;
1400;SDS011;46518;48.842;8.926;2024-01-15T12:00:45;11.20;;;6.90;;
1400;SDS011;46518;48.842;8.926;2024-01-15T12:03:16;8.57;;;6.15;;
1400;SDS011;46518;48.842;8.926;2024-01-15T12:05:45;8.68;;;6.35;;
1400;SDS011;46518;48.842;8.926;2024-01-15T12:08:21;9.77;;;6.00;;
1400;SDS011;46518;48.842;8.926;2024-01-15T12:10:51;9.15;;;5.90;;
1400;SDS011;46518;48.842;8.926;2024-01-15T12:13:20;8.57;;;5.57;;
1400;SDS011;46518;48.842;8.926;2024-01-15T12:15:49;6.80;;;4.40;;
1400;SDS011;46518;48.842;8.926;2024-01-15T12:18:18;9.32;;;5.40;;
1400;SDS011;46518;48.842;8.926;2024-01-15T12:20:48;9.80;;;6.40;;
1400;SDS011;46518;48.842;8.926;2024-01-15T12:23:17;8.13;;;5.00;;
1400;SDS011;46518;48.842;8.926;2024-01-15T12:25:47;9.15;;;5.55;;
1400;SDS011;46518;48.842;8.926;2024-01-15T12:28:16;7.38;;;4.65;;
1400;SDS011;46518;48.842;8.926;2024-01-15T12:30:46;5.50;;;3.25;;
1400;SDS011;46518;48.842;8.926;2024-01-15T12:33:17;7.00;;;3.90;;
1400;SDS011;46518;48.842;8.926;2024-01-15T12:35:46;10.77;;;4.60;;
1400;SDS011;46518;48.842;8.926;2024-01-15T12:38:15;4.53;;;3.63;;
1400;SDS011;46518;48.842;8.926;2024-01-15T12:40:48;7.75;;;4.60;;
1400;SDS011;46518;48.842;8.926;2024-01-15T12:43:17;5.90;;;4.28;;
1400;SDS011;46518;48.842;8.926;2024-01-15T12:45:45;5.32;;;4.05;;
1400;SDS011;46518;48.842;8.926;2024-01-15T12:48:14;3.92;;;3.30;;
1400;SDS011;46518;48.842;8.926;2024-01-15T12:53:38;4.38;;;3.17;;
1400;SDS011;46518;48.842;8.926;2024-01-15T12:56:09;3.53;;;2.70;;
1400;SDS011;46518;48.842;8.926;2024-01-15T12:58:38;3.00;;;2.28;;
1400;SDS011;46518;48.842;8.926;2024-01-15T13:01:06;3.42;;;2.85;;
1400;SDS011;46518;48.842;8.926;2024-01-15T13:03:35;2.65;;;2.45;;
1400;SDS011;46518;48.842;8.926;2024-01-15T13:06:03;5.32;;;3.05;;
1400;SDS011;46518;48.842;8.926;2024-01-15T13:08:33;3.67;;;2.83;;
1400;SDS011;46518;48.842;8.926;2024-01-15T13:11:01;4.15;;;3.20;;
1400;SDS011;46518;48.842;8.926;2024-01-15T13:13:31;3.20;;;2.60;;
1400;SDS011;46518;48.842;8.926;2024-01-15T13:16:01;4.93;;;3.60;;
1400;SDS011;46518;48.842;8.926;2024-01-15T13:18:29;3.33;;;2.83;;
1400;SDS011;46518;48.842;8.926;2024-01-15T13:20:57;3.67;;;3.08;;
1400;SDS011;46518;48.842;8.926;2024-01-15T13:23:26;7.80;;;4.03;;
1400;SDS011;46518;48.842;8.926;2024-01-15T13:25:55;6.93;;;3.83;;
1400;SDS011;46518;48.842;8.926;2024-01-15T13:28:23;4.82;;;3.85;;
1400;SDS011;46518;48.842;8.926;2024-01-15T13:30:53;5.65;;;4.88;;
1400;SDS011;46518;48.842;8.926;2024-01-15T13:33:22;4.68;;;3.97;;
1400;SDS011;46518;48.842;8.926;2024-01-15T13:35:50;7.97;;;5.18;;
1400;SDS011;46518;48.842;8.926;2024-01-15T13:38:18;5.90;;;4.18;;
1400;SDS011;46518;48.842;8.926;2024-01-15T13:40:47;9.43;;;4.75;;
1400;SDS011;46518;48.842;8.926;2024-01-15T13:43:15;6.57;;;5.20;;
1400;SDS011;46518;48.842;8.926;2024-01-15T13:45:45;5.80;;;4.20;;
1400;SDS011;46518;48.842;8.926;2024-01-15T13:48:14;11.13;;;5.53;;
1400;SDS011;46518;48.842;8.926;2024-01-15T13:50:46;6.35;;;4.50;;
1400;SDS011;46518;48.842;8.926;2024-01-15T13:53:14;10.32;;;5.88;;
1400;SDS011;46518;48.842;8.926;2024-01-15T13:55:43;7.65;;;5.30;;
1400;SDS011;46518;48.842;8.926;2024-01-15T13:58:11;6.68;;;5.60;;
1400;SDS011;46518;48.842;8.926;2024-01-15T14:00:39;6.88;;;6.15;;
1400;SDS011;46518;48.842;8.926;2024-01-15T14:03:08;7.78;;;6.47;;
1400;SDS011;46518;48.842;8.926;2024-01-15T14:05:37;7.93;;;5.82;;
1400;SDS011;46518;48.842;8.926;2024-01-15T14:08:06;8.75;;;5.82;;
1400;SDS011;46518;48.842;8.926;2024-01-15T14:20:20;12.95;;;6.40;;
1400;SDS011;46518;48.842;8.926;2024-01-15T14:22:50;11.43;;;7.30;;
1400;SDS011;46518;48.842;8.926;2024-01-15T14:25:18;8.60;;;6.35;;
1400;SDS011;46518;48.842;8.926;2024-01-15T14:27:47;12.25;;;6.82;;
1400;SDS011;46518;48.842;8.926;2024-01-15T14:30:15;12.45;;;9.35;;
1400;SDS011;46518;48.842;8.926;2024-01-15T14:32:44;10.35;;;7.85;;
1400;SDS011;46518;48.842;8.926;2024-01-15T14:35:12;11.93;;;8.07;;
1400;SDS011;46518;48.842;8.926;2024-01-15T14:37:41;13.50;;;8.32;;
1400;SDS011;46518;48.842;8.926;2024-01-15T14:40:11;12.57;;;8.57;;
1400;SDS011;46518;48.842;8.926;2024-01-15T14:42:42;12.40;;;8.02;;
1400;SDS011;46518;48.842;8.926;2024-01-15T14:45:10;14.10;;;8.75;;
1400;SDS011;46518;48.842;8.926;2024-01-15T14:47:39;11.75;;;8.60;;
1400;SDS011;46518;48.842;8.926;2024-01-15T14:50:09;11.45;;;8.00;;
1400;SDS011;46518;48.842;8.926;2024-01-15T14:52:39;18.15;;;8.43;;
1400;SDS011;46518;48.842;8.926;2024-01-15T14:55:08;14.52;;;8.50;;
1400;SDS011;46518;48.842;8.926;2024-01-15T14:57:38;9.65;;;7.85;;
1400;SDS011;46518;48.842;8.926;2024-01-15T15:00:08;12.32;;;9.95;;
1400;SDS011;46518;48.842;8.926;2024-01-15T15:02:36;9.02;;;8.05;;
1400;SDS011;46518;48.842;8.926;2024-01-15T15:05:05;11.23;;;7.65;;
1400;SDS011;46518;48.842;8.926;2024-01-15T15:07:35;9.18;;;7.68;;
1400;SDS011;46518;48.842;8.926;2024-01-15T15:10:04;11.02;;;7.90;;
1400;SDS011;46518;48.842;8.926;2024-01-15T15:12:40;15.50;;;8.68;;
1400;SDS011;46518;48.842;8.926;2024-01-15T15:15:39;11.48;;;8.20;;
1400;SDS011;46518;48.842;8.926;2024-01-15T15:18:13;9.60;;;7.65;;
1400;SDS011;46518;48.842;8.926;2024-01-15T15:20:44;11.07;;;8.40;;
1400;SDS011;46518;48.842;8.926;2024-01-15T15:23:13;14.23;;;7.05;;
1400;SDS011;46518;48.842;8.926;2024-01-15T15:25:42;16.73;;;10.27;;
1400;SDS011;46518;48.842;8.926;2024-01-15T15:28:12;13.52;;;8.85;;